Main page
METAR-TAF:

METAR-TAF

Airports :

Hof–Plauen Airport

Hof, Germany

latitude: 50-19N, longitude: 011-53E, elevation: 567 m

Current weather observation

The report was made 10 hours and 4 minutes ago, at 18:50 UTC
Wind 7 kt from the East/Southeast, varying between East/Northeast and South/Southeast
Temperature 0°C
Humidity 93%
Pressure 1009 hPa
Visibility: 7000 m
Broken clouds at a height of 800 ft
Overcast at a height of 900 ft

METAR: EDQM 201850Z 11007KT 070V150 7000 BKN008 OVC009 M00/M01 Q1009

Time: 05:54 (04:54 UTC)

Forecast

The report was made 11 hours and 54 minutes ago, at 17:00 UTC
Forecast valid from 20 at 18 UTC to 21 at 03 UTC
Wind 10 kt from the East
Visibility: 6000 m
Overcast at a height of 700 ft
Becoming
from 20 at 18 UTC to 20 at 20 UTC
Visibility: 3000 m
mist
Becoming
from 20 at 20 UTC to 20 at 22 UTC
Visibility: 0700 m
Overcast at a height of 200 ft
freezing fog

TAF: EDQM 201700Z 2018/2103 09010KT 6000 OVC007 BECMG 2018/2020 3000 BR BECMG 2020/2022 0700 FZFG OVC002

Weather observations and forecasts of more than 4000 airports (METAR and TAF reports).

The available stations are represented by yellow and red dots on the map.

Hover mouse over dot to see the name of the station.

Then click to see weather observations and forecasts.

To change the map : click on the green buttons with a black cross to zoom in, on the green button with a dash to zoom out, or on the green arrows for adjacent maps.


METAR-TAF: